Cambridge City, IN (47327)

05:58 AM EDT del 25 Luglio 2016 (GMT -0400)
GSF K9APR | | Change Station

Alt. 1100 ft 39.89 °N, 85.03 °W | Updated 1 second ago

Clear
Sereno
75.4 °F
Sembra 73 °F
N
3.5
Vento Variabile Vento da Sud
Gusts 3.5 mph

Oggi
Massima -- | Minima -- °F
--% Possibilità di precip.
Ieri
Massima -- | Minima -- °F
Precip. -- in
Pressione 29.94 in
Visibilità 10.0 miglia
Nuvole Sereno
Indice di calore 73 °F
Punto di rugiada 75 °F
Umidità 99%
Piovosità 0.00 in
Spessore del manto nevoso Non disponibile.
6:33 AM 9:00 PM
Gobba a levante, 67% visible
METAR KMIE 250953Z 24005KT 10SM CLR 24/19 A2997 RMK AO2 SLP136 T02390189
Pressione 29.94 in
Visibilità 10.0 miglia
Nuvole Sereno
Indice di calore 73 °F
Punto di rugiada 75 °F
Umidità 99%
Piovosità 0.00 in
Spessore del manto nevoso Non disponibile.
6:33 AM 9:00 PM
Gobba a levante, 67% visible
METAR KMIE 250953Z 24005KT 10SM CLR 24/19 A2997 RMK AO2 SLP136 T02390189

10-Day Weather Forecast

Almanac

Astronomia

Jul. 25, 2016 Alba Tramonto
Ora attuale
Crepuscolo civile
Crepuscolo nautico
Crepuscolo astronomico
Luna
Estensione della luce visibile
Lunghezza del giorno
Tomorrow will be .
, % of the Moon is Illuminated

Gli estremi di oggi

State Highs State Lows

Community

WunderPhotos

Upload Photos

1,927,289 foto caricate!

WunderBlog® & News

Nearby

Qualità dell'aria

  Qualità dell'aria Indice AQ Inquinante
Not available.

Profondità neve

Stazione Profondità Altitudine

Attività sismica

Città  Distanza Mag. Data & Ora
Minimo Magnitudo Mostrato è 2.5.

Temperature delle acque costiere

Località Temperatura

Stations

Stazioni meteo nelle vicinanze

Ubicazione della stazione Temp. Raffreddamento del vento Punto di rugiada Umidità Vento Precip. Alt. Aggiornato Tipo
                   

Watches & Warnings

There are currently no watches in effect.